createdAt,value
2023-08-12T00:01:27.081Z,81426.28
2023-08-12T00:03:08.540Z,81423.16
2023-08-12T00:04:49.920Z,81425.16
2023-08-12T00:06:31.280Z,81424.09
2023-08-12T00:08:12.641Z,81418.34
2023-08-12T00:09:53.990Z,81427.25
2023-08-12T00:11:35.378Z,81415.97
2023-08-12T00:13:16.758Z,81408.84
2023-08-12T00:14:58.115Z,81417.81
2023-08-12T00:16:39.491Z,81414.00
2023-08-12T00:18:20.834Z,81408.00
2023-08-12T00:20:02.180Z,81413.63
2023-08-12T00:21:43.565Z,81404.56
2023-08-12T00:23:24.920Z,81406.81
2023-08-12T00:25:06.276Z,81407.91
2023-08-12T00:26:47.626Z,81412.50
2023-08-12T00:28:29.006Z,81405.59
2023-08-12T00:30:10.541Z,81404.44
2023-08-12T00:31:51.951Z,81401.63
2023-08-12T00:33:33.303Z,81402.81
2023-08-12T00:35:14.642Z,81403.38
2023-08-12T00:36:56.031Z,81397.09
2023-08-12T00:38:37.433Z,81397.34
2023-08-12T00:40:18.788Z,81400.75
2023-08-12T00:42:00.157Z,81404.16
2023-08-12T00:43:41.562Z,81404.25
2023-08-12T00:45:22.902Z,81403.47
2023-08-12T00:47:04.304Z,81403.16
2023-08-12T00:48:45.650Z,81406.44
2023-08-12T00:50:27.031Z,81403.31
2023-08-12T00:52:08.414Z,81404.78
2023-08-12T00:53:49.747Z,81402.59
2023-08-12T00:55:31.140Z,81406.00
2023-08-12T00:57:12.879Z,81407.34
2023-08-12T00:58:54.461Z,81397.69
2023-08-12T01:00:35.853Z,81402.13
2023-08-12T01:02:17.280Z,81402.13
2023-08-12T01:03:58.969Z,81400.19
2023-08-12T01:05:41.263Z,81401.28
2023-08-12T01:07:22.728Z,81403.53
2023-08-12T01:09:04.069Z,81400.59
2023-08-12T01:10:45.424Z,81394.16
2023-08-12T01:12:26.780Z,81392.34
2023-08-12T01:14:08.108Z,81391.13
2023-08-12T01:15:49.473Z,81392.94
2023-08-12T01:17:30.904Z,81391.69
2023-08-12T01:19:12.339Z,81387.19
2023-08-12T01:20:53.781Z,81386.47
2023-08-12T01:22:35.255Z,81385.91
2023-08-12T01:24:16.601Z,81396.16
2023-08-12T01:25:57.953Z,81385.34
2023-08-12T01:27:39.347Z,81386.88
2023-08-12T01:29:20.690Z,81389.88
2023-08-12T01:31:02.112Z,81387.19
2023-08-12T01:32:43.567Z,81386.38
2023-08-12T01:34:24.931Z,81381.50
2023-08-12T01:36:06.284Z,81379.59
2023-08-12T01:37:47.665Z,81379.72
2023-08-12T01:39:29.025Z,81383.81
2023-08-12T01:41:10.375Z,81379.28
2023-08-12T01:42:51.730Z,81386.38
2023-08-12T01:44:33.096Z,81376.47
2023-08-12T01:46:14.524Z,81386.94
2023-08-12T01:47:55.983Z,81393.75
2023-08-12T01:49:37.364Z,81386.09
2023-08-12T01:51:18.754Z,81384.63
2023-08-12T01:53:00.128Z,81383.47
2023-08-12T01:54:41.484Z,81388.22
2023-08-12T01:56:22.825Z,81385.66
2023-08-12T01:58:04.193Z,81384.75
2023-08-12T01:59:45.532Z,81382.81
2023-08-12T02:01:26.975Z,81384.66
2023-08-12T02:03:08.441Z,81382.03
2023-08-12T02:04:49.853Z,81376.56
2023-08-12T02:06:31.220Z,81375.91
2023-08-12T02:08:12.642Z,81374.03
2023-08-12T02:09:54.088Z,81376.47
2023-08-12T02:11:35.460Z,81370.63
2023-08-12T02:13:16.827Z,81370.97
2023-08-12T02:14:58.173Z,81368.19
2023-08-12T02:16:39.542Z,81369.91
2023-08-12T02:18:20.911Z,81367.22
2023-08-12T02:20:02.277Z,81356.91
2023-08-12T02:21:43.664Z,81365.78
2023-08-12T02:23:25.034Z,81364.44
2023-08-12T02:25:06.374Z,81355.63
2023-08-12T02:26:47.719Z,81359.78
2023-08-12T02:28:29.088Z,81355.06
2023-08-12T02:30:10.448Z,81356.44
2023-08-12T02:31:51.841Z,81362.44
2023-08-12T02:33:33.257Z,81365.66
2023-08-12T02:35:14.599Z,81361.81
2023-08-12T02:36:55.965Z,81359.75
2023-08-12T02:38:37.344Z,81363.44
2023-08-12T02:40:18.740Z,81361.81
2023-08-12T02:42:00.083Z,81359.72
2023-08-12T02:43:41.438Z,81366.69
2023-08-12T02:45:22.830Z,81371.38
2023-08-12T02:47:04.167Z,81369.34
2023-08-12T02:48:45.531Z,81367.25
2023-08-12T02:50:26.934Z,81366.47
2023-08-12T02:52:08.294Z,81364.13
2023-08-12T02:53:49.660Z,81361.38
2023-08-12T02:55:31.054Z,81362.06
2023-08-12T02:57:12.660Z,81364.03
2023-08-12T02:58:54.308Z,81364.84
2023-08-12T03:00:35.667Z,81365.66
2023-08-12T03:02:17.049Z,81365.13
2023-08-12T03:03:58.491Z,81347.81
2023-08-12T03:05:39.876Z,81351.69
2023-08-12T03:07:21.249Z,81355.84
2023-08-12T03:09:02.603Z,81350.88
2023-08-12T03:10:43.982Z,81350.13
2023-08-12T03:12:25.432Z,81349.50
2023-08-12T03:14:06.825Z,81350.03
2023-08-12T03:15:48.238Z,81347.78
2023-08-12T03:17:29.701Z,81353.13
2023-08-12T03:19:11.089Z,81347.59
2023-08-12T03:20:52.471Z,81342.50
2023-08-12T03:22:33.813Z,81351.81
2023-08-12T03:24:15.156Z,81343.09
2023-08-12T03:25:56.525Z,81342.25
2023-08-12T03:27:37.871Z,81351.78
2023-08-12T03:29:19.249Z,81361.00
2023-08-12T03:31:00.694Z,81355.31
2023-08-12T03:32:42.193Z,81347.91
2023-08-12T03:34:23.618Z,81350.09
2023-08-12T03:36:04.996Z,81348.31
2023-08-12T03:37:46.338Z,81350.13
2023-08-12T03:39:27.725Z,81356.44
2023-08-12T03:41:09.134Z,81355.97
2023-08-12T03:42:50.489Z,81356.09
2023-08-12T03:44:31.849Z,81353.41
2023-08-12T03:46:13.230Z,81355.84
2023-08-12T03:47:54.643Z,81350.47
2023-08-12T03:49:36.095Z,81353.75
2023-08-12T03:51:17.487Z,81349.44
2023-08-12T03:52:58.842Z,81345.53
2023-08-12T03:54:40.204Z,81351.81
2023-08-12T03:56:21.603Z,81342.34
2023-08-12T03:58:02.983Z,81351.28
2023-08-12T03:59:44.360Z,81343.94
2023-08-12T04:01:25.803Z,81347.22
2023-08-12T04:03:07.384Z,81353.91
2023-08-12T04:04:48.765Z,81351.72
2023-08-12T04:06:30.141Z,81349.81
2023-08-12T04:08:11.477Z,81352.72
2023-08-12T04:09:52.825Z,81352.28
2023-08-12T04:11:34.338Z,81356.69
2023-08-12T04:13:35.646Z,81352.94
2023-08-12T04:15:36.970Z,81352.78
2023-08-12T04:17:38.352Z,81348.63
2023-08-12T04:19:39.704Z,81344.81
2023-08-12T04:21:21.267Z,81347.91
2023-08-12T04:23:02.650Z,81349.53
2023-08-12T04:24:44.004Z,81343.44
2023-08-12T04:26:25.375Z,81347.94
2023-08-12T04:28:06.762Z,81347.03
2023-08-12T04:29:48.111Z,81337.56
2023-08-12T04:31:29.461Z,81350.31
2023-08-12T04:33:10.841Z,81348.41
2023-08-12T04:34:52.252Z,81345.66
2023-08-12T04:36:33.610Z,81350.63
2023-08-12T04:38:15.013Z,81342.59
2023-08-12T04:39:56.356Z,81336.66
2023-08-12T04:41:37.694Z,81344.31
2023-08-12T04:43:19.102Z,81341.78
2023-08-12T04:45:00.470Z,81343.22
2023-08-12T04:46:41.829Z,81341.16
2023-08-12T04:48:23.250Z,81340.31
2023-08-12T04:50:04.619Z,81343.88
2023-08-12T04:51:45.985Z,81347.69
2023-08-12T04:53:27.333Z,81347.56
2023-08-12T04:55:08.896Z,81333.06
2023-08-12T04:56:50.283Z,81336.88
2023-08-12T04:58:31.737Z,81333.56
2023-08-12T05:00:13.128Z,81337.34
2023-08-12T05:02:04.058Z,81340.25
2023-08-12T05:03:46.735Z,81335.28
2023-08-12T05:05:28.229Z,81338.66
2023-08-12T05:07:09.648Z,81341.19
2023-08-12T05:08:50.980Z,81334.38
2023-08-12T05:10:32.392Z,81331.69
2023-08-12T05:12:13.982Z,81336.84
2023-08-12T05:13:55.539Z,81340.25
2023-08-12T05:15:37.001Z,81330.88
2023-08-12T05:17:18.392Z,81344.50
2023-08-12T05:18:59.770Z,81338.13
2023-08-12T05:20:42.122Z,81333.94
2023-08-12T05:22:25.284Z,81338.81
2023-08-12T05:24:06.672Z,81340.59
2023-08-12T05:25:48.031Z,81335.94
2023-08-12T05:27:29.392Z,81338.38
2023-08-12T05:29:10.766Z,81340.22
2023-08-12T05:30:52.204Z,81336.53
2023-08-12T05:32:33.585Z,81338.34
2023-08-12T05:34:14.992Z,81328.41
2023-08-12T05:35:56.379Z,81330.25
2023-08-12T05:37:37.751Z,81340.88
2023-08-12T05:39:19.143Z,81324.53
2023-08-12T05:41:00.505Z,81328.78
2023-08-12T05:42:41.851Z,81329.97
2023-08-12T05:44:23.268Z,81328.56
2023-08-12T05:46:04.666Z,81331.75
2023-08-12T05:47:46.163Z,81333.41
2023-08-12T05:49:27.569Z,81336.38
2023-08-12T05:51:08.925Z,81336.56
2023-08-12T05:52:50.353Z,81338.22
2023-08-12T05:54:31.725Z,81333.16
2023-08-12T05:56:13.061Z,81330.72
2023-08-12T05:57:54.455Z,81329.19
2023-08-12T05:59:35.851Z,81331.19
2023-08-12T06:01:17.224Z,81331.69
2023-08-12T06:02:58.763Z,81328.91
2023-08-12T06:04:40.213Z,81331.63
2023-08-12T06:06:21.565Z,81324.13
2023-08-12T06:08:02.970Z,81321.44
2023-08-12T06:09:44.334Z,81321.44
2023-08-12T06:11:25.728Z,81324.69
2023-08-12T06:13:08.321Z,81321.19
2023-08-12T06:14:49.706Z,81319.28
2023-08-12T06:16:31.055Z,81321.25
2023-08-12T06:18:12.531Z,81318.63
2023-08-12T06:19:53.981Z,81315.44
2023-08-12T06:21:35.310Z,81310.50
2023-08-12T06:23:16.673Z,81308.38
2023-08-12T06:24:58.027Z,81303.88
2023-08-12T06:26:39.423Z,81307.25
2023-08-12T06:28:20.806Z,81308.28
2023-08-12T06:30:02.255Z,81308.91
2023-08-12T06:31:43.737Z,81308.75
2023-08-12T06:33:25.097Z,81316.53
2023-08-12T06:35:23.462Z,81312.56
2023-08-12T06:37:24.778Z,81307.06
2023-08-12T06:39:26.112Z,81311.88
2023-08-12T06:41:07.533Z,81309.00
2023-08-12T06:42:48.904Z,81308.31
2023-08-12T06:44:30.259Z,81301.31
2023-08-12T06:46:11.645Z,81293.88
2023-08-12T06:47:53.115Z,81293.50
2023-08-12T06:49:34.514Z,81303.78
2023-08-12T06:51:15.874Z,81304.66
2023-08-12T06:52:57.245Z,81301.50
2023-08-12T06:54:38.636Z,81303.38
2023-08-12T06:56:19.985Z,81301.91
2023-08-12T06:58:01.341Z,81308.13
2023-08-12T06:59:42.732Z,81303.28
2023-08-12T07:01:24.112Z,81305.91
2023-08-12T07:03:05.582Z,81302.56
2023-08-12T07:04:47.039Z,81314.13
2023-08-12T07:06:28.381Z,81310.38
2023-08-12T07:08:09.725Z,81312.78
2023-08-12T07:09:51.094Z,81316.28
2023-08-12T07:11:32.479Z,81317.38
2023-08-12T07:13:13.840Z,81313.00
2023-08-12T07:14:55.217Z,81317.75
2023-08-12T07:16:36.583Z,81321.63
2023-08-12T07:18:17.947Z,81321.16
2023-08-12T07:19:59.324Z,81319.66
2023-08-12T07:21:40.740Z,81324.97
2023-08-12T07:23:22.107Z,81327.59
2023-08-12T07:25:03.462Z,81318.94
2023-08-12T07:26:44.798Z,81321.78
2023-08-12T07:28:26.168Z,81324.56
2023-08-12T07:30:07.730Z,81321.88
2023-08-12T07:31:49.174Z,81322.50
2023-08-12T07:33:30.533Z,81321.94
2023-08-12T07:35:11.876Z,81326.13
2023-08-12T07:36:53.229Z,81322.31
2023-08-12T07:38:34.624Z,81322.38
2023-08-12T07:40:16.000Z,81315.69
2023-08-12T07:41:57.347Z,81324.06
2023-08-12T07:43:38.729Z,81322.34
2023-08-12T07:45:20.114Z,81323.88
2023-08-12T07:47:01.521Z,81317.41
2023-08-12T07:48:42.929Z,81324.97
2023-08-12T07:50:24.366Z,81317.22
2023-08-12T07:52:05.712Z,81311.41
2023-08-12T07:53:47.054Z,81311.44
2023-08-12T07:55:28.476Z,81302.84
2023-08-12T07:57:09.885Z,81304.84
2023-08-12T07:58:51.261Z,81303.50
2023-08-12T08:00:32.701Z,81298.16
2023-08-12T08:02:14.211Z,81294.75
2023-08-12T08:03:55.828Z,81291.31
2023-08-12T08:05:37.278Z,81292.69
2023-08-12T08:07:18.713Z,81290.09
2023-08-12T08:09:00.056Z,81284.16
2023-08-12T08:10:41.459Z,81282.69
2023-08-12T08:12:23.052Z,81281.88
2023-08-12T08:14:04.722Z,81273.09
2023-08-12T08:15:46.098Z,81273.59
2023-08-12T08:17:27.512Z,81274.69
2023-08-12T08:19:10.240Z,81274.91
2023-08-12T08:20:54.370Z,81276.84
2023-08-12T08:22:35.748Z,81278.81
2023-08-12T08:24:17.138Z,81278.84
2023-08-12T08:25:58.501Z,81277.28
2023-08-12T08:27:41.578Z,81271.25
2023-08-12T08:29:25.050Z,81272.00
2023-08-12T08:31:06.454Z,81271.78
2023-08-12T08:32:48.024Z,81276.53
2023-08-12T08:34:29.432Z,81275.75
2023-08-12T08:36:11.489Z,81264.94
2023-08-12T08:37:53.078Z,81269.47
2023-08-12T08:39:34.427Z,81259.25
2023-08-12T08:41:15.821Z,81268.88
2023-08-12T08:42:57.180Z,81264.72
2023-08-12T08:44:38.585Z,81271.44
2023-08-12T08:46:19.990Z,81270.72
2023-08-12T08:48:01.415Z,81273.88
2023-08-12T08:49:42.825Z,81273.16
2023-08-12T08:51:24.185Z,81265.31
2023-08-12T08:53:05.536Z,81274.72
2023-08-12T08:54:46.906Z,81274.94
2023-08-12T08:58:11.245Z,81277.09
2023-08-12T09:01:36.951Z,81278.16
2023-08-12T09:03:18.421Z,81276.81
2023-08-12T09:04:59.827Z,81273.78
2023-08-12T09:06:41.302Z,81276.75
2023-08-12T09:08:22.695Z,81272.19
2023-08-12T09:10:04.081Z,81284.25
2023-08-12T09:11:45.456Z,81270.91
2023-08-12T09:13:26.799Z,81274.81
2023-08-12T09:15:08.178Z,81281.44
2023-08-12T09:16:49.564Z,81273.88
2023-08-12T09:18:30.996Z,81278.75
2023-08-12T09:20:12.391Z,81279.22
2023-08-12T09:21:53.765Z,81276.13
2023-08-12T09:23:35.853Z,81286.47
2023-08-12T09:25:17.305Z,81284.00
2023-08-12T09:26:58.718Z,81293.50
2023-08-12T09:28:40.066Z,81295.47
2023-08-12T09:30:21.453Z,81290.56
2023-08-12T09:32:02.872Z,81284.03
2023-08-12T09:33:44.281Z,81287.66
2023-08-12T09:35:25.635Z,81288.47
2023-08-12T09:37:07.011Z,81280.72
2023-08-12T09:38:48.359Z,81283.94
2023-08-12T09:40:29.710Z,81274.44
2023-08-12T09:42:11.462Z,81274.72
2023-08-12T09:43:53.223Z,81276.50
2023-08-12T09:45:34.650Z,81273.41
2023-08-12T09:47:16.066Z,81276.34
2023-08-12T09:48:57.464Z,81281.53
2023-08-12T09:50:38.922Z,81273.22
2023-08-12T09:52:20.378Z,81271.94
2023-08-12T09:54:01.753Z,81269.34
2023-08-12T09:55:43.123Z,81275.81
2023-08-12T09:57:24.480Z,81278.00
2023-08-12T09:59:05.815Z,81272.25
2023-08-12T10:00:47.179Z,81278.06
2023-08-12T10:02:28.581Z,81274.06
2023-08-12T10:04:09.972Z,81273.25
2023-08-12T10:05:51.356Z,81277.78
2023-08-12T10:07:32.718Z,81281.38
2023-08-12T10:09:14.170Z,81275.88
2023-08-12T10:11:07.172Z,81282.22
2023-08-12T10:12:54.072Z,81278.31
2023-08-12T10:14:35.448Z,81279.38
2023-08-12T10:16:16.899Z,81280.75
2023-08-12T10:17:58.308Z,81283.38
2023-08-12T10:19:39.700Z,81286.81
2023-08-12T10:21:21.056Z,81291.59
2023-08-12T10:23:02.594Z,81300.91
2023-08-12T10:24:43.999Z,81284.09
2023-08-12T10:26:25.342Z,81287.28
2023-08-12T10:28:06.712Z,81286.47
2023-08-12T10:29:48.089Z,81284.53
2023-08-12T10:31:29.492Z,81275.44
2023-08-12T10:33:10.879Z,81281.94
2023-08-12T10:34:52.210Z,81292.03
2023-08-12T10:36:33.587Z,81296.28
2023-08-12T10:38:14.974Z,81286.97
2023-08-12T10:39:56.332Z,81282.88
2023-08-12T10:41:37.737Z,81278.56
2023-08-12T10:43:19.102Z,81275.53
2023-08-12T10:45:00.477Z,81271.44
2023-08-12T10:46:41.994Z,81266.91
2023-08-12T10:48:23.457Z,81277.06
2023-08-12T10:50:04.882Z,81272.75
2023-08-12T10:51:46.303Z,81263.72
2023-08-12T10:53:27.662Z,81262.88
2023-08-12T10:55:09.133Z,81261.63
2023-08-12T10:56:50.536Z,81265.34
2023-08-12T10:58:31.904Z,81263.16
2023-08-12T11:00:13.274Z,81257.41
2023-08-12T11:01:54.672Z,81260.09
2023-08-12T11:03:38.887Z,81256.41
2023-08-12T11:05:20.684Z,81254.91
2023-08-12T11:07:02.207Z,81251.78
2023-08-12T11:08:43.594Z,81256.06
2023-08-12T11:10:24.949Z,81254.38
2023-08-12T11:12:06.309Z,81252.91
2023-08-12T11:13:47.678Z,81249.47
2023-08-12T11:15:29.032Z,81254.31
2023-08-12T11:17:10.391Z,81255.09
2023-08-12T11:18:51.769Z,81252.03
2023-08-12T11:20:33.116Z,81254.78
2023-08-12T11:22:14.736Z,81247.09
2023-08-12T11:23:56.412Z,81245.53
2023-08-12T11:25:37.836Z,81248.31
2023-08-12T11:27:19.181Z,81253.88
2023-08-12T11:29:00.569Z,81244.53
2023-08-12T11:30:43.403Z,81248.16
2023-08-12T11:32:25.223Z,81258.00
2023-08-12T11:34:06.572Z,81259.31
2023-08-12T11:35:47.970Z,81253.72
2023-08-12T11:37:29.332Z,81246.19
2023-08-12T11:39:10.782Z,81242.81
2023-08-12T11:40:52.166Z,81238.47
2023-08-12T11:42:33.538Z,81244.28
2023-08-12T11:44:14.898Z,81246.69
2023-08-12T11:45:56.383Z,81251.84
2023-08-12T11:47:37.803Z,81245.56
2023-08-12T11:49:19.205Z,81251.31
2023-08-12T11:51:00.611Z,81255.22
2023-08-12T11:52:41.952Z,81256.66
2023-08-12T11:54:23.287Z,81254.13
2023-08-12T11:56:04.684Z,81255.91
2023-08-12T11:57:46.046Z,81262.06
2023-08-12T11:59:27.418Z,81254.81
2023-08-12T12:01:08.812Z,81252.13
2023-08-12T12:02:50.348Z,81240.69
2023-08-12T12:04:32.092Z,81239.72
2023-08-12T12:06:13.519Z,81234.69
2023-08-12T12:07:55.566Z,81241.06
2023-08-12T12:09:39.444Z,81244.03
2023-08-12T12:11:20.911Z,81231.84
2023-08-12T12:13:02.282Z,81240.72
2023-08-12T12:14:43.667Z,81233.41
2023-08-12T12:16:25.276Z,81232.47
2023-08-12T12:18:06.722Z,81238.16
2023-08-12T12:19:48.269Z,81239.28
2023-08-12T12:21:29.655Z,81244.22
2023-08-12T12:23:11.042Z,81242.69
2023-08-12T12:24:52.405Z,81234.72
2023-08-12T12:26:33.915Z,81246.69
2023-08-12T12:28:15.320Z,81245.06
2023-08-12T12:29:56.720Z,81247.09
2023-08-12T12:31:38.112Z,81247.66
2023-08-12T12:33:19.884Z,81248.66
2023-08-12T12:35:01.505Z,81249.78
2023-08-12T12:36:42.976Z,81251.69
2023-08-12T12:38:24.346Z,81249.00
2023-08-12T12:40:05.911Z,81245.50
2023-08-12T12:41:48.752Z,81245.97
2023-08-12T12:43:30.278Z,81249.56
2023-08-12T12:45:11.647Z,81247.00
2023-08-12T12:46:53.041Z,81241.66
2023-08-12T12:48:34.422Z,81234.78
2023-08-12T12:50:15.777Z,81234.59
2023-08-12T12:51:57.160Z,81226.03
2023-08-12T12:53:38.571Z,81230.56
2023-08-12T12:55:21.046Z,81229.13
2023-08-12T12:57:02.588Z,81229.72
2023-08-12T12:58:43.948Z,81226.78
2023-08-12T13:00:25.341Z,81225.81
2023-08-12T13:02:06.781Z,81221.78
2023-08-12T13:03:48.191Z,81216.28
2023-08-12T13:05:29.560Z,81216.28
2023-08-12T13:07:10.932Z,81216.66
2023-08-12T13:08:52.300Z,81208.44
2023-08-12T13:10:33.697Z,81204.09
2023-08-12T13:12:15.327Z,81206.66
2023-08-12T13:13:56.855Z,81218.41
2023-08-12T13:15:38.285Z,81211.69
2023-08-12T13:17:19.703Z,81215.28
2023-08-12T13:19:01.086Z,81212.72
2023-08-12T13:20:42.457Z,81208.06
2023-08-12T13:22:23.803Z,81211.28
2023-08-12T13:24:05.177Z,81211.59
2023-08-12T13:25:46.565Z,81207.78
2023-08-12T13:27:27.949Z,81213.88
2023-08-12T13:29:09.331Z,81204.50
2023-08-12T13:30:50.678Z,81208.25
2023-08-12T13:32:32.091Z,81208.34
2023-08-12T13:34:13.445Z,81206.28
2023-08-12T13:35:54.799Z,81204.56
2023-08-12T13:37:36.171Z,81208.66
2023-08-12T13:39:17.519Z,81208.63
2023-08-12T13:40:58.864Z,81195.94
2023-08-12T13:42:40.233Z,81202.50
2023-08-12T13:44:21.627Z,81200.44
2023-08-12T13:46:03.052Z,81205.91
2023-08-12T13:47:44.495Z,81207.56
2023-08-12T13:49:25.897Z,81206.38
2023-08-12T13:51:07.354Z,81197.88
2023-08-12T13:52:48.706Z,81201.03
2023-08-12T13:54:30.073Z,81197.81
2023-08-12T13:56:11.427Z,81190.06
2023-08-12T13:57:52.789Z,81200.06
2023-08-12T13:59:34.152Z,81202.34
2023-08-12T14:01:15.586Z,81207.16
2023-08-12T14:02:57.068Z,81198.78
2023-08-12T14:04:38.424Z,81201.63
2023-08-12T14:06:19.842Z,81203.94
2023-08-12T14:08:01.275Z,81206.31
2023-08-12T14:09:42.625Z,81201.50
2023-08-12T14:11:24.122Z,81204.44
2023-08-12T14:13:05.548Z,81207.91
2023-08-12T14:14:46.969Z,81218.31
2023-08-12T14:16:28.418Z,81214.13
2023-08-12T14:18:09.861Z,81212.38
2023-08-12T14:19:51.208Z,81201.13
2023-08-12T14:21:32.624Z,81203.53
2023-08-12T14:23:13.988Z,81199.75
2023-08-12T14:26:37.674Z,81196.31
2023-08-12T14:28:19.021Z,81199.28
2023-08-12T14:30:00.380Z,81196.94
2023-08-12T14:31:41.804Z,81196.34
2023-08-12T14:33:23.222Z,81205.09
2023-08-12T14:35:04.580Z,81208.56
2023-08-12T14:36:45.935Z,81210.41
2023-08-12T14:38:27.310Z,81229.41
2023-08-12T14:40:08.689Z,81228.78
2023-08-12T14:41:50.088Z,81232.19
2023-08-12T14:43:31.626Z,81235.09
2023-08-12T14:45:13.121Z,81232.53
2023-08-12T14:46:54.466Z,81229.31
2023-08-12T14:48:35.831Z,81233.31
2023-08-12T14:50:17.197Z,81224.72
2023-08-12T14:51:58.567Z,81228.69
2023-08-12T14:53:39.933Z,81226.06
2023-08-12T14:55:21.343Z,81241.97
2023-08-12T14:57:02.686Z,81239.31
2023-08-12T14:58:44.178Z,81248.56
2023-08-12T15:00:25.638Z,81249.25
2023-08-12T15:02:07.079Z,81251.88
2023-08-12T15:03:48.580Z,81263.13
2023-08-12T15:05:30.023Z,81257.16
2023-08-12T15:07:11.542Z,81261.13
2023-08-12T15:08:53.132Z,81267.06
2023-08-12T15:10:34.526Z,81265.03
2023-08-12T15:12:15.902Z,81265.13
2023-08-12T15:13:57.260Z,81271.06
2023-08-12T15:15:38.842Z,81284.94
2023-08-12T15:17:20.467Z,81284.91
2023-08-12T15:19:01.894Z,81292.88
2023-08-12T15:20:43.259Z,81297.50
2023-08-12T15:22:24.844Z,81314.69
2023-08-12T15:24:06.579Z,81316.00
2023-08-12T15:25:48.130Z,81320.00
2023-08-12T15:27:29.490Z,81322.66
2023-08-12T15:29:10.897Z,81337.88
2023-08-12T15:30:52.356Z,81340.50
2023-08-12T15:32:33.765Z,81345.75
2023-08-12T15:34:15.167Z,81359.69
2023-08-12T15:35:56.522Z,81369.66
2023-08-12T15:37:38.366Z,81384.88
2023-08-12T15:39:19.712Z,81382.13
2023-08-12T15:41:01.087Z,81390.34
2023-08-12T15:42:42.530Z,81404.47
2023-08-12T15:44:23.853Z,81408.53
2023-08-12T15:46:05.298Z,81417.59
2023-08-12T15:47:46.796Z,81417.25
2023-08-12T15:49:28.208Z,81410.16
2023-08-12T15:51:09.614Z,81410.81
2023-08-12T15:52:50.990Z,81410.91
2023-08-12T15:54:32.338Z,81406.69
2023-08-12T15:56:13.722Z,81404.56
2023-08-12T15:57:55.087Z,81408.38
2023-08-12T15:59:36.448Z,81387.75
2023-08-12T16:01:17.849Z,81393.16
2023-08-12T16:02:59.303Z,81390.94
2023-08-12T16:04:40.703Z,81378.72
2023-08-12T16:06:22.050Z,81378.78
2023-08-12T16:08:03.413Z,81377.31
2023-08-12T16:09:44.814Z,81366.59
2023-08-12T16:11:26.174Z,81372.91
2023-08-12T16:13:07.527Z,81367.03
2023-08-12T16:14:49.670Z,81354.38
2023-08-12T16:16:31.529Z,81359.88
2023-08-12T16:18:12.991Z,81345.72
2023-08-12T16:19:54.410Z,81347.78
2023-08-12T16:21:35.836Z,81344.63
2023-08-12T16:23:17.232Z,81340.22
2023-08-12T16:24:58.616Z,81340.78
2023-08-12T16:26:39.982Z,81327.13
2023-08-12T16:28:21.357Z,81328.00
2023-08-12T16:30:02.775Z,81319.63
2023-08-12T16:31:44.180Z,81330.97
2023-08-12T16:33:25.588Z,81318.41
2023-08-12T16:35:06.986Z,81322.34
2023-08-12T16:36:55.780Z,81315.88
2023-08-12T16:38:43.603Z,81319.31
2023-08-12T16:40:24.988Z,81312.72
2023-08-12T16:42:06.330Z,81316.72
2023-08-12T16:43:47.694Z,81306.81
2023-08-12T16:45:29.097Z,81306.16
2023-08-12T16:47:10.487Z,81302.84
2023-08-12T16:48:51.855Z,81304.81
2023-08-12T16:50:33.423Z,81299.50
2023-08-12T16:52:15.066Z,81307.47
2023-08-12T16:53:56.725Z,81306.81
2023-08-12T16:55:38.112Z,81305.50
2023-08-12T16:57:19.505Z,81295.56
2023-08-12T16:59:00.875Z,81302.84
2023-08-12T17:00:42.319Z,81283.63
2023-08-12T17:02:23.716Z,81299.53
2023-08-12T17:04:05.156Z,81298.88
2023-08-12T17:05:46.586Z,81294.25
2023-08-12T17:07:27.996Z,81295.59
2023-08-12T17:09:16.930Z,81285.63
2023-08-12T17:10:58.959Z,81288.97
2023-08-12T17:12:40.997Z,81285.66
2023-08-12T17:14:22.653Z,81281.66
2023-08-12T17:16:04.330Z,81282.97
2023-08-12T17:17:46.121Z,81270.38
2023-08-12T17:19:27.680Z,81276.97
2023-08-12T17:21:09.075Z,81275.53
2023-08-12T17:22:50.451Z,81279.41
2023-08-12T17:24:31.821Z,81274.81
2023-08-12T17:26:13.197Z,81276.69
2023-08-12T17:27:54.601Z,81275.88
2023-08-12T17:29:35.989Z,81271.91
2023-08-12T17:31:17.374Z,81278.19
2023-08-12T17:32:58.804Z,81282.28
2023-08-12T17:34:40.192Z,81284.78
2023-08-12T17:36:21.550Z,81279.75
2023-08-12T17:38:03.202Z,81284.31
2023-08-12T17:39:44.561Z,81281.91
2023-08-12T17:41:25.910Z,81284.09
2023-08-12T17:43:07.295Z,81281.69
2023-08-12T17:44:48.683Z,81284.44
2023-08-12T17:46:30.137Z,81293.19
2023-08-12T17:48:11.538Z,81290.00
2023-08-12T17:49:52.938Z,81295.97
2023-08-12T17:51:34.304Z,81300.69
2023-08-12T17:53:15.683Z,81303.28
2023-08-12T17:54:57.096Z,81315.13
2023-08-12T17:56:38.459Z,81310.84
2023-08-12T17:58:19.812Z,81311.53
2023-08-12T18:00:01.179Z,81315.88
2023-08-12T18:01:42.535Z,81319.19
2023-08-12T18:03:24.035Z,81315.94
2023-08-12T18:05:05.498Z,81315.38
2023-08-12T18:06:46.855Z,81318.09
2023-08-12T18:08:28.217Z,81320.16
2023-08-12T18:10:09.889Z,81311.03
2023-08-12T18:11:51.240Z,81330.28
2023-08-12T18:13:33.474Z,81329.63
2023-08-12T18:15:15.326Z,81336.09
2023-08-12T18:16:56.850Z,81332.63
2023-08-12T18:18:38.395Z,81338.19
2023-08-12T18:20:19.760Z,81332.88
2023-08-12T18:22:01.122Z,81336.16
2023-08-12T18:23:42.468Z,81338.72
2023-08-12T18:25:23.837Z,81338.72
2023-08-12T18:27:05.609Z,81340.69
2023-08-12T18:28:47.128Z,81342.88
2023-08-12T18:30:28.622Z,81340.69
2023-08-12T18:32:09.992Z,81340.72
2023-08-12T18:33:51.367Z,81341.38
2023-08-12T18:35:32.704Z,81345.84
2023-08-12T18:37:14.032Z,81347.97
2023-08-12T18:38:55.433Z,81352.69
2023-08-12T18:40:36.786Z,81348.19
2023-08-12T18:42:18.249Z,81345.75
2023-08-12T18:43:59.640Z,81351.81
2023-08-12T18:45:41.004Z,81349.00
2023-08-12T18:47:22.435Z,81350.53
2023-08-12T18:49:03.790Z,81349.09
2023-08-12T18:50:45.201Z,81348.03
2023-08-12T18:52:26.558Z,81351.38
2023-08-12T18:54:07.967Z,81360.59
2023-08-12T18:55:49.337Z,81352.69
2023-08-12T18:57:30.710Z,81357.09
2023-08-12T18:59:12.688Z,81354.78
2023-08-12T19:00:54.313Z,81357.00
2023-08-12T19:02:35.815Z,81358.63
2023-08-12T19:04:17.281Z,81359.41
2023-08-12T19:05:58.682Z,81359.53
2023-08-12T19:07:40.057Z,81354.22
2023-08-12T19:09:21.398Z,81349.34
2023-08-12T19:11:02.783Z,81346.63
2023-08-12T19:12:44.173Z,81339.28
2023-08-12T19:14:25.534Z,81346.97
2023-08-12T19:16:07.171Z,81348.84
2023-08-12T19:17:48.858Z,81347.78
2023-08-12T19:19:30.463Z,81355.16
2023-08-12T19:21:12.072Z,81346.03
2023-08-12T19:22:53.610Z,81347.88
2023-08-12T19:24:35.114Z,81349.31
2023-08-12T19:26:16.498Z,81347.81
2023-08-12T19:27:57.928Z,81351.13
2023-08-12T19:29:39.301Z,81352.94
2023-08-12T19:31:20.711Z,81352.34
2023-08-12T19:33:02.288Z,81350.28
2023-08-12T19:34:43.693Z,81350.69
2023-08-12T19:36:25.078Z,81350.00
2023-08-12T19:38:06.463Z,81356.81
2023-08-12T19:39:47.861Z,81361.50
2023-08-12T19:41:30.622Z,81360.28
2023-08-12T19:43:12.246Z,81363.47
2023-08-12T19:44:53.609Z,81360.63
2023-08-12T19:46:34.986Z,81353.53
2023-08-12T19:48:16.362Z,81355.44
2023-08-12T19:49:57.720Z,81360.81
2023-08-12T19:51:39.205Z,81366.81
2023-08-12T19:53:20.583Z,81364.06
2023-08-12T19:55:01.939Z,81359.75
2023-08-12T19:56:43.310Z,81365.09
2023-08-12T19:58:24.737Z,81366.75
2023-08-12T20:00:06.324Z,81360.44